KCID/CID METAR and TAF weather

Enter ICAO airport designator
Station Type Date Time Source
KCID METAR 2020/11/27 14:52 UTC NOAA

KCID 271452Z 31008KT 5SM BR OVC006 M01/M01 A3016 RMK AO2 SLP222 T10061011 51015


Station Type Date Time Source
KCID Decoded METAR 2020/11/27 14:52 UTC NOAA

CEDAR RAPIDS AIRPORT, IA, United States (KCID) 41-53N 91-43W
Nov 27, 2020 - 09:52 AM EST / 2020.11.27 1452 UTC
Wind: from the NW (310 degrees) at 9 MPH (8 KT):0
Visibility: 5 mile(s):0
Sky conditions: overcast
Weather: mist
Temperature: 30.9 F (-0.6 C)
Windchill: 23 F (-5 C):1
Dew Point: 30.0 F (-1.1 C)
Relative Humidity: 96%
Pressure (altimeter): 30.16 in. Hg (1021 hPa)
Pressure tendency: 0.04 inches (1.5 hPa) higher than three hours ago
ob: KCID 271452Z 31008KT 5SM BR OVC006 M01/M01 A3016 RMK AO2 SLP222 T10061011 51015
cycle: 15

Station Type Date Time Source
KCID TAF 2020/11/27 15:09 UTC NOAA

TAF
AMD KCID 271505Z 2715/2812 31009KT 5SM BR BKN006
FM271600 30010KT P6SM SCT015
FM280200 27005KT P6SM SKC
FM280500 23005KT P6SM SKC

Example: see airport list